sensor_id;sensor_type;location;lat;lon;timestamp;P1;durP1;ratioP1;P2;durP2;ratioP2
20758;SDS011;10539;53.686;9.158;2023-05-07T00:01:41;12.27;;;7.80;;
20758;SDS011;10539;53.686;9.158;2023-05-07T00:04:07;17.40;;;10.30;;
20758;SDS011;10539;53.686;9.158;2023-05-07T00:06:32;16.73;;;9.83;;
20758;SDS011;10539;53.686;9.158;2023-05-07T00:08:58;17.63;;;9.93;;
20758;SDS011;10539;53.686;9.158;2023-05-07T00:11:24;15.37;;;9.50;;
20758;SDS011;10539;53.686;9.158;2023-05-07T00:13:51;15.43;;;9.33;;
20758;SDS011;10539;53.686;9.158;2023-05-07T00:16:17;16.03;;;10.53;;
20758;SDS011;10539;53.686;9.158;2023-05-07T00:18:42;16.90;;;10.10;;
20758;SDS011;10539;53.686;9.158;2023-05-07T00:21:09;15.67;;;8.27;;
20758;SDS011;10539;53.686;9.158;2023-05-07T00:23:35;8.13;;;5.43;;
20758;SDS011;10539;53.686;9.158;2023-05-07T00:26:00;13.67;;;8.70;;
20758;SDS011;10539;53.686;9.158;2023-05-07T00:28:26;16.93;;;10.40;;
20758;SDS011;10539;53.686;9.158;2023-05-07T00:30:52;12.47;;;8.17;;
20758;SDS011;10539;53.686;9.158;2023-05-07T00:33:18;18.20;;;10.83;;
20758;SDS011;10539;53.686;9.158;2023-05-07T00:35:45;13.97;;;8.30;;
20758;SDS011;10539;53.686;9.158;2023-05-07T00:38:11;13.33;;;8.70;;
20758;SDS011;10539;53.686;9.158;2023-05-07T00:40:36;15.57;;;9.37;;
20758;SDS011;10539;53.686;9.158;2023-05-07T00:43:02;16.53;;;9.80;;
20758;SDS011;10539;53.686;9.158;2023-05-07T00:45:28;18.23;;;7.60;;
20758;SDS011;10539;53.686;9.158;2023-05-07T00:47:58;12.40;;;7.37;;
20758;SDS011;10539;53.686;9.158;2023-05-07T00:50:26;17.23;;;10.13;;
20758;SDS011;10539;53.686;9.158;2023-05-07T00:52:52;15.53;;;9.37;;
20758;SDS011;10539;53.686;9.158;2023-05-07T00:55:19;18.93;;;11.57;;
20758;SDS011;10539;53.686;9.158;2023-05-07T00:57:45;16.20;;;9.77;;
20758;SDS011;10539;53.686;9.158;2023-05-07T01:00:11;14.90;;;8.83;;
20758;SDS011;10539;53.686;9.158;2023-05-07T01:02:38;20.30;;;11.77;;
20758;SDS011;10539;53.686;9.158;2023-05-07T01:05:04;20.53;;;12.93;;
20758;SDS011;10539;53.686;9.158;2023-05-07T01:07:32;19.33;;;11.93;;
20758;SDS011;10539;53.686;9.158;2023-05-07T01:09:59;17.87;;;10.83;;
20758;SDS011;10539;53.686;9.158;2023-05-07T01:12:26;20.93;;;12.73;;
20758;SDS011;10539;53.686;9.158;2023-05-07T01:14:53;21.33;;;12.20;;
20758;SDS011;10539;53.686;9.158;2023-05-07T01:17:20;19.00;;;12.47;;
20758;SDS011;10539;53.686;9.158;2023-05-07T01:19:46;18.53;;;11.47;;
20758;SDS011;10539;53.686;9.158;2023-05-07T01:22:13;20.27;;;11.80;;
20758;SDS011;10539;53.686;9.158;2023-05-07T01:24:41;19.20;;;11.00;;
20758;SDS011;10539;53.686;9.158;2023-05-07T01:27:08;18.07;;;10.73;;
20758;SDS011;10539;53.686;9.158;2023-05-07T01:29:33;18.73;;;10.73;;
20758;SDS011;10539;53.686;9.158;2023-05-07T01:32:00;19.53;;;10.90;;
20758;SDS011;10539;53.686;9.158;2023-05-07T01:34:30;18.77;;;10.37;;
20758;SDS011;10539;53.686;9.158;2023-05-07T01:36:58;20.47;;;10.37;;
20758;SDS011;10539;53.686;9.158;2023-05-07T01:39:24;16.40;;;9.33;;
20758;SDS011;10539;53.686;9.158;2023-05-07T01:41:53;15.17;;;10.03;;
20758;SDS011;10539;53.686;9.158;2023-05-07T01:44:23;18.03;;;10.07;;
20758;SDS011;10539;53.686;9.158;2023-05-07T01:46:49;13.80;;;8.53;;
20758;SDS011;10539;53.686;9.158;2023-05-07T01:49:15;15.93;;;9.67;;
20758;SDS011;10539;53.686;9.158;2023-05-07T01:51:41;15.17;;;9.60;;
20758;SDS011;10539;53.686;9.158;2023-05-07T01:54:08;15.37;;;8.80;;
20758;SDS011;10539;53.686;9.158;2023-05-07T01:56:34;13.20;;;7.70;;
20758;SDS011;10539;53.686;9.158;2023-05-07T01:59:00;14.93;;;7.73;;
20758;SDS011;10539;53.686;9.158;2023-05-07T02:01:27;14.23;;;7.57;;
20758;SDS011;10539;53.686;9.158;2023-05-07T02:03:52;13.50;;;8.37;;
20758;SDS011;10539;53.686;9.158;2023-05-07T02:06:18;12.17;;;8.00;;
20758;SDS011;10539;53.686;9.158;2023-05-07T02:08:44;12.83;;;7.93;;
20758;SDS011;10539;53.686;9.158;2023-05-07T02:11:11;14.00;;;7.80;;
20758;SDS011;10539;53.686;9.158;2023-05-07T02:13:36;13.70;;;7.90;;
20758;SDS011;10539;53.686;9.158;2023-05-07T02:16:02;13.90;;;8.10;;
20758;SDS011;10539;53.686;9.158;2023-05-07T02:18:28;12.67;;;8.07;;
20758;SDS011;10539;53.686;9.158;2023-05-07T02:20:54;14.57;;;8.37;;
20758;SDS011;10539;53.686;9.158;2023-05-07T02:23:20;12.83;;;8.00;;
20758;SDS011;10539;53.686;9.158;2023-05-07T02:25:45;12.50;;;7.23;;
20758;SDS011;10539;53.686;9.158;2023-05-07T02:28:11;12.20;;;7.80;;
20758;SDS011;10539;53.686;9.158;2023-05-07T02:30:37;11.83;;;6.93;;
20758;SDS011;10539;53.686;9.158;2023-05-07T02:33:03;13.53;;;7.40;;
20758;SDS011;10539;53.686;9.158;2023-05-07T02:35:29;9.83;;;6.17;;
20758;SDS011;10539;53.686;9.158;2023-05-07T02:37:54;11.90;;;7.10;;
20758;SDS011;10539;53.686;9.158;2023-05-07T02:40:20;10.63;;;7.33;;
20758;SDS011;10539;53.686;9.158;2023-05-07T02:42:46;10.60;;;6.43;;
20758;SDS011;10539;53.686;9.158;2023-05-07T02:45:12;10.67;;;5.80;;
20758;SDS011;10539;53.686;9.158;2023-05-07T02:47:38;12.00;;;7.30;;
20758;SDS011;10539;53.686;9.158;2023-05-07T02:50:03;10.20;;;5.40;;
20758;SDS011;10539;53.686;9.158;2023-05-07T02:52:30;8.90;;;5.60;;
20758;SDS011;10539;53.686;9.158;2023-05-07T02:54:55;10.00;;;6.70;;
20758;SDS011;10539;53.686;9.158;2023-05-07T02:57:21;8.50;;;4.77;;
20758;SDS011;10539;53.686;9.158;2023-05-07T02:59:46;10.63;;;6.93;;
20758;SDS011;10539;53.686;9.158;2023-05-07T03:02:12;9.47;;;6.13;;
20758;SDS011;10539;53.686;9.158;2023-05-07T03:04:39;10.03;;;6.30;;
20758;SDS011;10539;53.686;9.158;2023-05-07T03:07:05;8.67;;;4.77;;
20758;SDS011;10539;53.686;9.158;2023-05-07T03:09:31;11.67;;;6.97;;
20758;SDS011;10539;53.686;9.158;2023-05-07T03:11:56;11.27;;;7.50;;
20758;SDS011;10539;53.686;9.158;2023-05-07T03:14:22;12.27;;;6.53;;
20758;SDS011;10539;53.686;9.158;2023-05-07T03:16:48;11.27;;;6.23;;
20758;SDS011;10539;53.686;9.158;2023-05-07T03:19:14;13.30;;;6.97;;
20758;SDS011;10539;53.686;9.158;2023-05-07T03:21:40;11.23;;;6.87;;
20758;SDS011;10539;53.686;9.158;2023-05-07T03:24:06;10.70;;;7.23;;
20758;SDS011;10539;53.686;9.158;2023-05-07T03:26:31;10.07;;;6.93;;
20758;SDS011;10539;53.686;9.158;2023-05-07T03:28:58;12.33;;;7.60;;
20758;SDS011;10539;53.686;9.158;2023-05-07T03:31:24;10.47;;;7.00;;
20758;SDS011;10539;53.686;9.158;2023-05-07T03:33:53;12.90;;;7.20;;
20758;SDS011;10539;53.686;9.158;2023-05-07T03:36:21;11.43;;;8.13;;
20758;SDS011;10539;53.686;9.158;2023-05-07T03:38:48;12.37;;;7.47;;
20758;SDS011;10539;53.686;9.158;2023-05-07T03:41:14;11.80;;;7.53;;
20758;SDS011;10539;53.686;9.158;2023-05-07T03:43:40;11.40;;;7.60;;
20758;SDS011;10539;53.686;9.158;2023-05-07T03:46:06;10.53;;;6.63;;
20758;SDS011;10539;53.686;9.158;2023-05-07T03:48:39;11.77;;;8.13;;
20758;SDS011;10539;53.686;9.158;2023-05-07T03:51:08;11.77;;;7.63;;
20758;SDS011;10539;53.686;9.158;2023-05-07T03:53:34;12.67;;;7.70;;
20758;SDS011;10539;53.686;9.158;2023-05-07T03:56:00;11.40;;;7.67;;
20758;SDS011;10539;53.686;9.158;2023-05-07T03:58:25;11.53;;;8.00;;
20758;SDS011;10539;53.686;9.158;2023-05-07T04:00:51;11.80;;;6.53;;
20758;SDS011;10539;53.686;9.158;2023-05-07T04:03:17;11.17;;;7.67;;
20758;SDS011;10539;53.686;9.158;2023-05-07T04:05:42;12.30;;;7.63;;
20758;SDS011;10539;53.686;9.158;2023-05-07T04:08:15;9.60;;;6.90;;
20758;SDS011;10539;53.686;9.158;2023-05-07T04:10:41;11.93;;;7.23;;
20758;SDS011;10539;53.686;9.158;2023-05-07T04:13:06;12.10;;;7.07;;
20758;SDS011;10539;53.686;9.158;2023-05-07T04:15:32;10.90;;;7.70;;
20758;SDS011;10539;53.686;9.158;2023-05-07T04:17:59;12.27;;;7.40;;
20758;SDS011;10539;53.686;9.158;2023-05-07T04:20:25;12.23;;;6.77;;
20758;SDS011;10539;53.686;9.158;2023-05-07T04:22:51;13.27;;;7.30;;
20758;SDS011;10539;53.686;9.158;2023-05-07T04:25:16;11.23;;;7.97;;
20758;SDS011;10539;53.686;9.158;2023-05-07T04:27:42;13.07;;;8.63;;
20758;SDS011;10539;53.686;9.158;2023-05-07T04:30:08;11.37;;;7.47;;
20758;SDS011;10539;53.686;9.158;2023-05-07T04:32:35;12.40;;;8.13;;
20758;SDS011;10539;53.686;9.158;2023-05-07T04:35:02;11.93;;;8.10;;
20758;SDS011;10539;53.686;9.158;2023-05-07T04:37:29;12.10;;;7.53;;
20758;SDS011;10539;53.686;9.158;2023-05-07T04:39:56;14.60;;;8.23;;
20758;SDS011;10539;53.686;9.158;2023-05-07T04:42:22;12.67;;;7.90;;
20758;SDS011;10539;53.686;9.158;2023-05-07T04:44:52;14.30;;;9.20;;
20758;SDS011;10539;53.686;9.158;2023-05-07T04:47:18;11.27;;;7.20;;
20758;SDS011;10539;53.686;9.158;2023-05-07T04:49:44;15.10;;;6.00;;
20758;SDS011;10539;53.686;9.158;2023-05-07T04:52:10;14.07;;;8.10;;
20758;SDS011;10539;53.686;9.158;2023-05-07T04:54:36;11.77;;;7.87;;
20758;SDS011;10539;53.686;9.158;2023-05-07T04:57:03;11.70;;;7.23;;
20758;SDS011;10539;53.686;9.158;2023-05-07T04:59:29;12.53;;;7.37;;
20758;SDS011;10539;53.686;9.158;2023-05-07T05:01:55;8.23;;;5.43;;
20758;SDS011;10539;53.686;9.158;2023-05-07T05:04:21;13.60;;;6.97;;
20758;SDS011;10539;53.686;9.158;2023-05-07T05:06:49;11.27;;;7.43;;
20758;SDS011;10539;53.686;9.158;2023-05-07T05:09:15;13.03;;;7.50;;
20758;SDS011;10539;53.686;9.158;2023-05-07T05:11:41;12.00;;;7.90;;
20758;SDS011;10539;53.686;9.158;2023-05-07T05:14:07;12.20;;;8.00;;
20758;SDS011;10539;53.686;9.158;2023-05-07T05:16:37;12.90;;;8.00;;
20758;SDS011;10539;53.686;9.158;2023-05-07T05:19:03;14.00;;;6.03;;
20758;SDS011;10539;53.686;9.158;2023-05-07T05:21:30;12.53;;;7.87;;
20758;SDS011;10539;53.686;9.158;2023-05-07T05:23:59;11.43;;;7.80;;
20758;SDS011;10539;53.686;9.158;2023-05-07T05:26:25;12.63;;;8.20;;
20758;SDS011;10539;53.686;9.158;2023-05-07T05:28:52;12.37;;;7.63;;
20758;SDS011;10539;53.686;9.158;2023-05-07T05:31:19;13.27;;;7.77;;
20758;SDS011;10539;53.686;9.158;2023-05-07T05:33:46;10.30;;;6.17;;
20758;SDS011;10539;53.686;9.158;2023-05-07T05:36:13;10.57;;;6.33;;
20758;SDS011;10539;53.686;9.158;2023-05-07T05:38:45;11.00;;;6.50;;
20758;SDS011;10539;53.686;9.158;2023-05-07T05:41:14;15.00;;;8.87;;
20758;SDS011;10539;53.686;9.158;2023-05-07T05:43:43;14.93;;;8.53;;
20758;SDS011;10539;53.686;9.158;2023-05-07T05:46:10;15.17;;;8.87;;
20758;SDS011;10539;53.686;9.158;2023-05-07T05:48:41;12.70;;;7.03;;
20758;SDS011;10539;53.686;9.158;2023-05-07T05:51:13;16.73;;;8.63;;
20758;SDS011;10539;53.686;9.158;2023-05-07T05:53:40;11.13;;;7.37;;
20758;SDS011;10539;53.686;9.158;2023-05-07T05:56:06;13.50;;;8.00;;
20758;SDS011;10539;53.686;9.158;2023-05-07T05:58:34;14.17;;;8.33;;
20758;SDS011;10539;53.686;9.158;2023-05-07T06:01:02;12.53;;;7.70;;
20758;SDS011;10539;53.686;9.158;2023-05-07T06:03:30;14.40;;;8.67;;
20758;SDS011;10539;53.686;9.158;2023-05-07T06:05:58;11.67;;;7.57;;
20758;SDS011;10539;53.686;9.158;2023-05-07T06:08:28;13.57;;;8.30;;
20758;SDS011;10539;53.686;9.158;2023-05-07T06:10:58;16.57;;;8.57;;
20758;SDS011;10539;53.686;9.158;2023-05-07T06:13:25;13.63;;;8.37;;
20758;SDS011;10539;53.686;9.158;2023-05-07T06:15:51;13.53;;;7.97;;
20758;SDS011;10539;53.686;9.158;2023-05-07T06:18:17;12.87;;;7.17;;
20758;SDS011;10539;53.686;9.158;2023-05-07T06:20:43;7.50;;;4.53;;
20758;SDS011;10539;53.686;9.158;2023-05-07T06:23:09;11.40;;;6.63;;
20758;SDS011;10539;53.686;9.158;2023-05-07T06:25:34;13.67;;;7.07;;
20758;SDS011;10539;53.686;9.158;2023-05-07T06:28:00;12.97;;;7.30;;
20758;SDS011;10539;53.686;9.158;2023-05-07T06:30:26;14.03;;;8.80;;
20758;SDS011;10539;53.686;9.158;2023-05-07T06:32:51;14.10;;;8.33;;
20758;SDS011;10539;53.686;9.158;2023-05-07T06:35:17;15.20;;;7.97;;
20758;SDS011;10539;53.686;9.158;2023-05-07T06:37:43;12.13;;;7.53;;
20758;SDS011;10539;53.686;9.158;2023-05-07T06:40:09;10.73;;;6.37;;
20758;SDS011;10539;53.686;9.158;2023-05-07T06:42:36;14.20;;;8.50;;
20758;SDS011;10539;53.686;9.158;2023-05-07T06:45:02;15.53;;;6.10;;
20758;SDS011;10539;53.686;9.158;2023-05-07T06:47:29;14.17;;;7.67;;
20758;SDS011;10539;53.686;9.158;2023-05-07T06:49:54;14.50;;;9.10;;
20758;SDS011;10539;53.686;9.158;2023-05-07T06:52:20;12.03;;;7.00;;
20758;SDS011;10539;53.686;9.158;2023-05-07T06:54:46;11.60;;;6.73;;
20758;SDS011;10539;53.686;9.158;2023-05-07T06:57:12;12.50;;;7.60;;
20758;SDS011;10539;53.686;9.158;2023-05-07T06:59:37;10.60;;;5.53;;
20758;SDS011;10539;53.686;9.158;2023-05-07T07:02:03;15.47;;;8.13;;
20758;SDS011;10539;53.686;9.158;2023-05-07T07:04:29;14.23;;;7.47;;
20758;SDS011;10539;53.686;9.158;2023-05-07T07:06:55;10.57;;;6.97;;
20758;SDS011;10539;53.686;9.158;2023-05-07T07:09:21;13.00;;;7.97;;
20758;SDS011;10539;53.686;9.158;2023-05-07T07:11:47;14.47;;;8.47;;
20758;SDS011;10539;53.686;9.158;2023-05-07T07:14:13;14.63;;;8.50;;
20758;SDS011;10539;53.686;9.158;2023-05-07T07:16:39;12.60;;;7.77;;
20758;SDS011;10539;53.686;9.158;2023-05-07T07:19:05;13.30;;;8.43;;
20758;SDS011;10539;53.686;9.158;2023-05-07T07:21:30;12.10;;;7.47;;
20758;SDS011;10539;53.686;9.158;2023-05-07T07:23:57;12.90;;;7.87;;
20758;SDS011;10539;53.686;9.158;2023-05-07T07:26:22;12.83;;;7.53;;
20758;SDS011;10539;53.686;9.158;2023-05-07T07:28:48;10.90;;;7.87;;
20758;SDS011;10539;53.686;9.158;2023-05-07T07:31:14;14.10;;;7.73;;
20758;SDS011;10539;53.686;9.158;2023-05-07T07:33:40;12.30;;;7.30;;
20758;SDS011;10539;53.686;9.158;2023-05-07T07:36:06;13.37;;;8.13;;
20758;SDS011;10539;53.686;9.158;2023-05-07T07:38:32;12.67;;;7.33;;
20758;SDS011;10539;53.686;9.158;2023-05-07T07:40:58;11.77;;;7.13;;
20758;SDS011;10539;53.686;9.158;2023-05-07T07:43:23;12.00;;;7.63;;
20758;SDS011;10539;53.686;9.158;2023-05-07T07:45:49;12.30;;;7.70;;
20758;SDS011;10539;53.686;9.158;2023-05-07T07:48:15;11.83;;;6.80;;
20758;SDS011;10539;53.686;9.158;2023-05-07T07:50:41;11.23;;;7.13;;
20758;SDS011;10539;53.686;9.158;2023-05-07T07:53:06;14.50;;;7.57;;
20758;SDS011;10539;53.686;9.158;2023-05-07T07:55:32;9.33;;;6.60;;
20758;SDS011;10539;53.686;9.158;2023-05-07T07:58:02;10.27;;;6.40;;
20758;SDS011;10539;53.686;9.158;2023-05-07T08:00:28;15.00;;;7.40;;
20758;SDS011;10539;53.686;9.158;2023-05-07T08:02:54;12.67;;;7.40;;
20758;SDS011;10539;53.686;9.158;2023-05-07T08:05:19;10.27;;;6.00;;
20758;SDS011;10539;53.686;9.158;2023-05-07T08:07:45;12.87;;;6.60;;
20758;SDS011;10539;53.686;9.158;2023-05-07T08:10:16;12.83;;;7.80;;
20758;SDS011;10539;53.686;9.158;2023-05-07T08:12:47;9.80;;;5.83;;
20758;SDS011;10539;53.686;9.158;2023-05-07T08:15:13;10.50;;;6.60;;
20758;SDS011;10539;53.686;9.158;2023-05-07T08:17:39;9.87;;;5.43;;
20758;SDS011;10539;53.686;9.158;2023-05-07T08:20:05;12.70;;;6.70;;
20758;SDS011;10539;53.686;9.158;2023-05-07T08:22:32;9.33;;;6.10;;
20758;SDS011;10539;53.686;9.158;2023-05-07T08:24:57;10.37;;;6.77;;
20758;SDS011;10539;53.686;9.158;2023-05-07T08:27:24;7.43;;;5.27;;
20758;SDS011;10539;53.686;9.158;2023-05-07T08:29:50;11.40;;;6.17;;
20758;SDS011;10539;53.686;9.158;2023-05-07T08:32:16;12.43;;;6.20;;
20758;SDS011;10539;53.686;9.158;2023-05-07T08:34:41;9.10;;;6.17;;
20758;SDS011;10539;53.686;9.158;2023-05-07T08:37:07;10.73;;;6.03;;
20758;SDS011;10539;53.686;9.158;2023-05-07T08:39:32;9.30;;;5.87;;
20758;SDS011;10539;53.686;9.158;2023-05-07T08:41:59;10.10;;;6.50;;
20758;SDS011;10539;53.686;9.158;2023-05-07T08:44:31;10.47;;;5.53;;
20758;SDS011;10539;53.686;9.158;2023-05-07T08:46:58;9.37;;;6.07;;
20758;SDS011;10539;53.686;9.158;2023-05-07T08:49:27;10.27;;;5.03;;
20758;SDS011;10539;53.686;9.158;2023-05-07T08:51:53;9.23;;;5.80;;
20758;SDS011;10539;53.686;9.158;2023-05-07T08:54:21;7.83;;;5.37;;
20758;SDS011;10539;53.686;9.158;2023-05-07T08:56:47;8.63;;;5.40;;
20758;SDS011;10539;53.686;9.158;2023-05-07T08:59:13;8.90;;;5.00;;
20758;SDS011;10539;53.686;9.158;2023-05-07T09:01:39;9.67;;;6.20;;
20758;SDS011;10539;53.686;9.158;2023-05-07T09:04:04;9.17;;;5.87;;
20758;SDS011;10539;53.686;9.158;2023-05-07T09:06:31;8.00;;;5.43;;
20758;SDS011;10539;53.686;9.158;2023-05-07T09:08:58;6.80;;;4.60;;
20758;SDS011;10539;53.686;9.158;2023-05-07T09:11:26;7.97;;;5.40;;
20758;SDS011;10539;53.686;9.158;2023-05-07T09:13:55;9.00;;;5.27;;
20758;SDS011;10539;53.686;9.158;2023-05-07T09:16:23;8.17;;;4.60;;
20758;SDS011;10539;53.686;9.158;2023-05-07T09:18:53;8.40;;;5.70;;
20758;SDS011;10539;53.686;9.158;2023-05-07T09:21:20;8.60;;;5.30;;
20758;SDS011;10539;53.686;9.158;2023-05-07T09:23:55;7.00;;;5.27;;
20758;SDS011;10539;53.686;9.158;2023-05-07T09:26:21;6.20;;;4.00;;
20758;SDS011;10539;53.686;9.158;2023-05-07T09:28:47;8.37;;;5.33;;
20758;SDS011;10539;53.686;9.158;2023-05-07T09:31:13;7.73;;;4.97;;
20758;SDS011;10539;53.686;9.158;2023-05-07T09:33:39;7.03;;;4.90;;
20758;SDS011;10539;53.686;9.158;2023-05-07T09:36:05;9.00;;;5.47;;
20758;SDS011;10539;53.686;9.158;2023-05-07T09:38:33;8.07;;;5.10;;
20758;SDS011;10539;53.686;9.158;2023-05-07T09:41:10;7.37;;;5.00;;
20758;SDS011;10539;53.686;9.158;2023-05-07T09:43:37;8.00;;;4.70;;
20758;SDS011;10539;53.686;9.158;2023-05-07T09:46:14;7.20;;;4.80;;
20758;SDS011;10539;53.686;9.158;2023-05-07T09:48:40;9.70;;;5.37;;
20758;SDS011;10539;53.686;9.158;2023-05-07T09:53:57;7.23;;;4.77;;
20758;SDS011;10539;53.686;9.158;2023-05-07T09:56:26;5.60;;;4.10;;
20758;SDS011;10539;53.686;9.158;2023-05-07T09:58:52;6.30;;;4.77;;
20758;SDS011;10539;53.686;9.158;2023-05-07T10:01:21;8.30;;;4.50;;
20758;SDS011;10539;53.686;9.158;2023-05-07T10:03:48;7.97;;;5.37;;
20758;SDS011;10539;53.686;9.158;2023-05-07T10:06:15;8.10;;;5.60;;
20758;SDS011;10539;53.686;9.158;2023-05-07T10:08:42;7.27;;;3.93;;
20758;SDS011;10539;53.686;9.158;2023-05-07T10:11:08;5.93;;;4.40;;
20758;SDS011;10539;53.686;9.158;2023-05-07T10:13:34;7.90;;;5.27;;
20758;SDS011;10539;53.686;9.158;2023-05-07T10:16:03;7.43;;;5.50;;
20758;SDS011;10539;53.686;9.158;2023-05-07T10:18:30;6.47;;;4.03;;
20758;SDS011;10539;53.686;9.158;2023-05-07T10:23:33;7.77;;;4.20;;
20758;SDS011;10539;53.686;9.158;2023-05-07T10:26:03;8.53;;;4.70;;
20758;SDS011;10539;53.686;9.158;2023-05-07T10:28:32;6.03;;;4.63;;
20758;SDS011;10539;53.686;9.158;2023-05-07T10:31:08;6.77;;;4.80;;
20758;SDS011;10539;53.686;9.158;2023-05-07T10:33:55;5.90;;;4.27;;
20758;SDS011;10539;53.686;9.158;2023-05-07T10:36:22;7.80;;;3.87;;
20758;SDS011;10539;53.686;9.158;2023-05-07T10:38:48;5.10;;;4.00;;
20758;SDS011;10539;53.686;9.158;2023-05-07T10:41:14;7.97;;;4.63;;
20758;SDS011;10539;53.686;9.158;2023-05-07T10:43:42;7.47;;;5.10;;
20758;SDS011;10539;53.686;9.158;2023-05-07T10:46:20;5.43;;;4.17;;
20758;SDS011;10539;53.686;9.158;2023-05-07T10:51:29;5.83;;;4.57;;
20758;SDS011;10539;53.686;9.158;2023-05-07T10:56:34;6.00;;;4.50;;
20758;SDS011;10539;53.686;9.158;2023-05-07T11:02:00;7.70;;;3.87;;
20758;SDS011;10539;53.686;9.158;2023-05-07T11:04:31;6.77;;;4.10;;
20758;SDS011;10539;53.686;9.158;2023-05-07T11:12:16;7.03;;;4.27;;
20758;SDS011;10539;53.686;9.158;2023-05-07T11:15:04;7.90;;;4.87;;
20758;SDS011;10539;53.686;9.158;2023-05-07T11:17:34;7.00;;;5.40;;
20758;SDS011;10539;53.686;9.158;2023-05-07T11:20:16;7.10;;;4.93;;
20758;SDS011;10539;53.686;9.158;2023-05-07T11:22:42;9.13;;;5.20;;
20758;SDS011;10539;53.686;9.158;2023-05-07T11:25:08;9.43;;;5.07;;
20758;SDS011;10539;53.686;9.158;2023-05-07T11:27:34;7.70;;;4.90;;
20758;SDS011;10539;53.686;9.158;2023-05-07T11:30:00;5.93;;;4.40;;
20758;SDS011;10539;53.686;9.158;2023-05-07T11:32:28;7.53;;;4.70;;
20758;SDS011;10539;53.686;9.158;2023-05-07T11:34:56;5.80;;;4.60;;
20758;SDS011;10539;53.686;9.158;2023-05-07T11:37:25;6.63;;;4.80;;
20758;SDS011;10539;53.686;9.158;2023-05-07T11:40:05;5.90;;;4.83;;
20758;SDS011;10539;53.686;9.158;2023-05-07T11:42:33;4.73;;;3.97;;
20758;SDS011;10539;53.686;9.158;2023-05-07T11:45:00;7.37;;;5.90;;
20758;SDS011;10539;53.686;9.158;2023-05-07T11:47:29;8.13;;;5.90;;
20758;SDS011;10539;53.686;9.158;2023-05-07T11:49:55;6.87;;;5.07;;
20758;SDS011;10539;53.686;9.158;2023-05-07T11:52:22;7.17;;;5.70;;
20758;SDS011;10539;53.686;9.158;2023-05-07T11:54:49;8.30;;;6.10;;
20758;SDS011;10539;53.686;9.158;2023-05-07T11:57:16;8.87;;;5.80;;
20758;SDS011;10539;53.686;9.158;2023-05-07T11:59:42;7.50;;;5.70;;
20758;SDS011;10539;53.686;9.158;2023-05-07T12:02:09;8.97;;;6.23;;
20758;SDS011;10539;53.686;9.158;2023-05-07T12:04:35;7.60;;;6.23;;
20758;SDS011;10539;53.686;9.158;2023-05-07T12:07:03;6.83;;;5.33;;
20758;SDS011;10539;53.686;9.158;2023-05-07T12:09:29;6.50;;;5.70;;
20758;SDS011;10539;53.686;9.158;2023-05-07T12:11:57;8.53;;;5.20;;
20758;SDS011;10539;53.686;9.158;2023-05-07T12:14:28;9.37;;;6.20;;
20758;SDS011;10539;53.686;9.158;2023-05-07T12:16:55;7.80;;;5.97;;
20758;SDS011;10539;53.686;9.158;2023-05-07T12:19:21;7.83;;;5.83;;
20758;SDS011;10539;53.686;9.158;2023-05-07T12:21:47;8.43;;;6.10;;
20758;SDS011;10539;53.686;9.158;2023-05-07T12:24:16;7.80;;;5.67;;
20758;SDS011;10539;53.686;9.158;2023-05-07T12:26:43;7.83;;;5.40;;
20758;SDS011;10539;53.686;9.158;2023-05-07T12:29:09;7.70;;;6.03;;
20758;SDS011;10539;53.686;9.158;2023-05-07T12:31:34;9.00;;;5.43;;
20758;SDS011;10539;53.686;9.158;2023-05-07T12:34:02;7.83;;;5.43;;
20758;SDS011;10539;53.686;9.158;2023-05-07T12:36:35;9.27;;;5.43;;
20758;SDS011;10539;53.686;9.158;2023-05-07T12:39:08;7.33;;;5.37;;
20758;SDS011;10539;53.686;9.158;2023-05-07T12:44:23;8.73;;;6.00;;
20758;SDS011;10539;53.686;9.158;2023-05-07T12:46:50;8.63;;;6.03;;
20758;SDS011;10539;53.686;9.158;2023-05-07T12:49:16;6.33;;;5.30;;
20758;SDS011;10539;53.686;9.158;2023-05-07T12:51:46;7.40;;;5.37;;
20758;SDS011;10539;53.686;9.158;2023-05-07T12:54:13;5.77;;;3.90;;
20758;SDS011;10539;53.686;9.158;2023-05-07T12:57:03;6.90;;;5.20;;
20758;SDS011;10539;53.686;9.158;2023-05-07T12:59:40;6.87;;;5.37;;
20758;SDS011;10539;53.686;9.158;2023-05-07T13:02:07;7.30;;;5.27;;
20758;SDS011;10539;53.686;9.158;2023-05-07T13:04:34;6.87;;;5.03;;
20758;SDS011;10539;53.686;9.158;2023-05-07T13:07:00;8.37;;;5.27;;
20758;SDS011;10539;53.686;9.158;2023-05-07T13:09:26;7.23;;;5.00;;
20758;SDS011;10539;53.686;9.158;2023-05-07T13:11:54;6.70;;;4.83;;
20758;SDS011;10539;53.686;9.158;2023-05-07T13:14:19;8.10;;;5.53;;
20758;SDS011;10539;53.686;9.158;2023-05-07T13:16:48;8.00;;;5.57;;
20758;SDS011;10539;53.686;9.158;2023-05-07T13:19:14;8.73;;;5.47;;
20758;SDS011;10539;53.686;9.158;2023-05-07T13:21:39;6.40;;;4.93;;
20758;SDS011;10539;53.686;9.158;2023-05-07T13:24:06;7.07;;;5.37;;
20758;SDS011;10539;53.686;9.158;2023-05-07T13:26:32;7.63;;;5.07;;
20758;SDS011;10539;53.686;9.158;2023-05-07T13:28:57;7.60;;;5.77;;
20758;SDS011;10539;53.686;9.158;2023-05-07T13:31:23;7.83;;;5.37;;
20758;SDS011;10539;53.686;9.158;2023-05-07T13:33:50;7.97;;;5.23;;
20758;SDS011;10539;53.686;9.158;2023-05-07T13:36:15;7.03;;;4.77;;
20758;SDS011;10539;53.686;9.158;2023-05-07T13:38:41;6.40;;;4.80;;
20758;SDS011;10539;53.686;9.158;2023-05-07T13:41:07;5.87;;;4.10;;
20758;SDS011;10539;53.686;9.158;2023-05-07T13:43:33;7.27;;;5.60;;
20758;SDS011;10539;53.686;9.158;2023-05-07T13:45:59;7.07;;;5.13;;
20758;SDS011;10539;53.686;9.158;2023-05-07T13:48:25;8.93;;;5.07;;
20758;SDS011;10539;53.686;9.158;2023-05-07T13:50:51;6.77;;;5.23;;
20758;SDS011;10539;53.686;9.158;2023-05-07T13:53:17;6.97;;;5.07;;
20758;SDS011;10539;53.686;9.158;2023-05-07T13:55:43;6.57;;;5.30;;
20758;SDS011;10539;53.686;9.158;2023-05-07T13:58:10;6.67;;;5.17;;
20758;SDS011;10539;53.686;9.158;2023-05-07T14:00:36;6.63;;;5.17;;
20758;SDS011;10539;53.686;9.158;2023-05-07T14:03:01;7.23;;;5.37;;
20758;SDS011;10539;53.686;9.158;2023-05-07T14:05:28;5.83;;;5.07;;
20758;SDS011;10539;53.686;9.158;2023-05-07T14:07:54;6.20;;;4.80;;
20758;SDS011;10539;53.686;9.158;2023-05-07T14:10:21;6.23;;;4.47;;
20758;SDS011;10539;53.686;9.158;2023-05-07T14:12:47;4.80;;;3.93;;
20758;SDS011;10539;53.686;9.158;2023-05-07T14:15:13;5.37;;;4.40;;
20758;SDS011;10539;53.686;9.158;2023-05-07T14:17:39;6.97;;;4.80;;
20758;SDS011;10539;53.686;9.158;2023-05-07T14:20:05;7.43;;;4.80;;
20758;SDS011;10539;53.686;9.158;2023-05-07T14:22:34;6.50;;;4.70;;
20758;SDS011;10539;53.686;9.158;2023-05-07T14:25:00;5.50;;;4.20;;
20758;SDS011;10539;53.686;9.158;2023-05-07T14:27:25;4.90;;;4.07;;
20758;SDS011;10539;53.686;9.158;2023-05-07T14:29:51;5.53;;;3.50;;
20758;SDS011;10539;53.686;9.158;2023-05-07T14:32:18;4.30;;;3.57;;
20758;SDS011;10539;53.686;9.158;2023-05-07T14:34:44;5.53;;;3.80;;
20758;SDS011;10539;53.686;9.158;2023-05-07T14:37:10;4.43;;;3.53;;
20758;SDS011;10539;53.686;9.158;2023-05-07T14:39:36;7.20;;;3.83;;
20758;SDS011;10539;53.686;9.158;2023-05-07T14:42:02;5.00;;;3.70;;
20758;SDS011;10539;53.686;9.158;2023-05-07T14:44:27;5.27;;;4.10;;
20758;SDS011;10539;53.686;9.158;2023-05-07T14:46:53;4.90;;;4.10;;
20758;SDS011;10539;53.686;9.158;2023-05-07T14:49:19;4.80;;;3.47;;
20758;SDS011;10539;53.686;9.158;2023-05-07T14:51:45;5.43;;;3.43;;
20758;SDS011;10539;53.686;9.158;2023-05-07T14:54:12;6.63;;;2.93;;
20758;SDS011;10539;53.686;9.158;2023-05-07T14:56:38;7.67;;;3.87;;
20758;SDS011;10539;53.686;9.158;2023-05-07T14:59:05;4.30;;;3.60;;